createdAt,value
2023-01-19T00:01:06.925Z,23.73
2023-01-19T00:03:35.166Z,29.45
2023-01-19T00:06:08.364Z,25.33
2023-01-19T00:08:35.924Z,23.38
2023-01-19T00:11:02.858Z,26.02
2023-01-19T00:13:29.790Z,26.00
2023-01-19T00:15:56.676Z,24.42
2023-01-19T00:18:23.443Z,22.17
2023-01-19T00:20:50.143Z,26.08
2023-01-19T00:23:18.671Z,29.73
2023-01-19T00:25:46.196Z,21.17
2023-01-19T00:28:14.860Z,21.30
2023-01-19T00:30:42.598Z,25.20
2023-01-19T00:33:10.198Z,24.23
2023-01-19T00:35:36.838Z,26.90
2023-01-19T00:38:03.691Z,24.00
2023-01-19T00:40:30.471Z,29.63
2023-01-19T00:42:57.182Z,20.55
2023-01-19T00:45:24.543Z,24.25
2023-01-19T00:47:57.100Z,22.23
2023-01-19T00:50:25.404Z,21.20
2023-01-19T00:52:53.130Z,23.15
2023-01-19T00:55:19.865Z,28.02
2023-01-19T00:57:46.523Z,22.20
2023-01-19T01:00:15.835Z,21.58
2023-01-19T01:02:44.014Z,18.25
2023-01-19T01:05:11.706Z,19.98
2023-01-19T01:07:42.894Z,21.27
2023-01-19T01:10:22.378Z,22.00
2023-01-19T01:12:56.432Z,26.15
2023-01-19T01:15:27.502Z,25.45
2023-01-19T01:17:54.448Z,23.65
2023-01-19T01:20:23.768Z,23.40
2023-01-19T01:22:51.930Z,27.52
2023-01-19T01:25:22.709Z,24.23
2023-01-19T01:27:51.236Z,26.17
2023-01-19T01:30:18.519Z,22.40
2023-01-19T01:32:45.194Z,30.02
2023-01-19T01:35:12.719Z,26.08
2023-01-19T01:37:39.930Z,23.17
2023-01-19T01:40:07.339Z,18.42
2023-01-19T01:42:34.705Z,26.20
2023-01-19T01:45:03.558Z,21.63
2023-01-19T01:47:30.175Z,22.95
2023-01-19T01:50:18.824Z,30.30
2023-01-19T01:53:06.923Z,29.67
2023-01-19T01:55:39.716Z,26.08
2023-01-19T01:58:07.670Z,22.02
2023-01-19T02:00:54.713Z,23.80
2023-01-19T02:03:23.458Z,18.77
2023-01-19T02:05:50.388Z,30.90
2023-01-19T02:08:44.243Z,25.50
2023-01-19T02:11:30.124Z,21.48
2023-01-19T02:13:57.033Z,31.23
2023-01-19T02:16:23.864Z,26.40
2023-01-19T02:18:50.769Z,20.92
2023-01-19T02:21:57.600Z,23.55
2023-01-19T02:24:25.714Z,19.48
2023-01-19T02:26:52.417Z,20.05
2023-01-19T02:29:21.639Z,29.30
2023-01-19T02:31:48.437Z,25.45
2023-01-19T02:34:18.720Z,23.13
2023-01-19T02:37:06.834Z,28.60
2023-01-19T02:39:38.953Z,25.63
2023-01-19T02:42:13.493Z,24.90
2023-01-19T02:44:41.697Z,20.25
2023-01-19T02:47:08.536Z,30.15
2023-01-19T02:49:36.300Z,32.00
2023-01-19T02:52:04.322Z,28.63
2023-01-19T02:54:56.369Z,19.63
2023-01-19T02:57:35.186Z,21.98
2023-01-19T03:00:09.804Z,23.85
2023-01-19T03:03:02.066Z,25.85
2023-01-19T03:05:50.803Z,24.67
2023-01-19T03:08:29.948Z,24.17
2023-01-19T03:11:08.957Z,29.65
2023-01-19T03:13:54.548Z,23.58
2023-01-19T03:16:30.676Z,30.52
2023-01-19T03:19:16.597Z,35.42
2023-01-19T03:21:47.374Z,30.33
2023-01-19T03:24:15.556Z,31.35
2023-01-19T03:26:46.040Z,28.80
2023-01-19T03:29:13.995Z,27.00
2023-01-19T03:31:42.784Z,31.02
2023-01-19T03:34:12.150Z,28.25
2023-01-19T03:36:45.592Z,28.83
2023-01-19T03:39:15.395Z,37.63
2023-01-19T03:41:43.152Z,29.73
2023-01-19T03:44:12.787Z,32.60
2023-01-19T03:46:39.823Z,25.17
2023-01-19T03:49:08.462Z,30.92
2023-01-19T03:51:40.636Z,33.20
2023-01-19T03:54:08.154Z,28.80
2023-01-19T03:56:34.845Z,29.05
2023-01-19T03:59:01.553Z,29.05
2023-01-19T04:01:28.562Z,35.42
2023-01-19T04:03:55.290Z,26.75
2023-01-19T04:06:22.299Z,35.35
2023-01-19T04:08:49.981Z,36.83
2023-01-19T04:11:17.640Z,29.80
2023-01-19T04:13:44.912Z,33.72
2023-01-19T04:16:12.244Z,35.72
2023-01-19T04:18:40.622Z,29.17
2023-01-19T04:21:08.133Z,36.50
2023-01-19T04:23:35.173Z,33.42
2023-01-19T04:26:04.699Z,33.65
2023-01-19T04:28:32.208Z,32.30
2023-01-19T04:31:00.265Z,32.78
2023-01-19T04:33:27.845Z,31.90
2023-01-19T04:35:55.401Z,38.50
2023-01-19T04:38:22.753Z,31.88
2023-01-19T04:40:50.922Z,34.25
2023-01-19T04:43:17.608Z,30.75
2023-01-19T04:45:44.894Z,29.98
2023-01-19T04:48:12.124Z,30.02
2023-01-19T04:50:39.059Z,28.10
2023-01-19T04:53:06.405Z,26.63
2023-01-19T04:55:33.074Z,35.22
2023-01-19T04:57:59.759Z,35.22
2023-01-19T05:00:27.024Z,31.95
2023-01-19T05:02:53.892Z,32.95
2023-01-19T05:05:20.609Z,38.45
2023-01-19T05:07:47.561Z,33.15
2023-01-19T05:10:14.288Z,27.23
2023-01-19T05:12:42.248Z,30.40
2023-01-19T05:15:10.471Z,44.58
2023-01-19T05:17:37.668Z,30.08
2023-01-19T05:20:04.901Z,29.40
2023-01-19T05:22:31.739Z,35.83
2023-01-19T05:24:58.479Z,38.10
2023-01-19T05:27:25.181Z,28.40
2023-01-19T05:29:52.119Z,36.17
2023-01-19T05:32:18.818Z,28.13
2023-01-19T05:34:45.473Z,34.92
2023-01-19T05:37:12.126Z,34.05
2023-01-19T05:39:38.746Z,31.38
2023-01-19T05:42:05.785Z,30.92
2023-01-19T05:44:32.426Z,29.73
2023-01-19T05:46:59.194Z,28.77
2023-01-19T05:49:25.966Z,31.42
2023-01-19T05:51:52.704Z,27.02
2023-01-19T05:54:19.369Z,38.03
2023-01-19T05:56:46.135Z,34.60
2023-01-19T05:59:12.844Z,45.85
2023-01-19T06:01:40.335Z,44.70
2023-01-19T06:04:07.330Z,30.85
2023-01-19T06:06:34.032Z,32.40
2023-01-19T06:09:00.681Z,37.13
2023-01-19T06:11:27.390Z,36.63
2023-01-19T06:13:54.318Z,36.03
2023-01-19T06:16:21.018Z,29.17
2023-01-19T06:18:47.912Z,31.30
2023-01-19T06:21:14.610Z,32.00
2023-01-19T06:23:42.447Z,31.48
2023-01-19T06:26:09.168Z,37.45
2023-01-19T06:28:35.967Z,29.15
2023-01-19T06:31:05.351Z,28.08
2023-01-19T06:33:32.017Z,35.70
2023-01-19T06:35:58.914Z,41.13
2023-01-19T06:38:25.694Z,39.90
2023-01-19T06:40:54.736Z,37.63
2023-01-19T06:43:22.147Z,36.50
2023-01-19T06:45:49.057Z,41.60
2023-01-19T06:48:16.196Z,30.75
2023-01-19T06:50:45.335Z,35.10
2023-01-19T06:55:39.289Z,30.05
2023-01-19T06:58:07.748Z,38.45
2023-01-19T07:00:34.493Z,48.17
2023-01-19T07:03:01.423Z,32.28
2023-01-19T07:05:28.352Z,44.90
2023-01-19T07:07:56.366Z,33.05
2023-01-19T07:10:24.053Z,37.00
2023-01-19T07:12:51.039Z,47.03
2023-01-19T07:15:22.668Z,53.65
2023-01-19T07:17:49.853Z,42.72
2023-01-19T07:20:17.537Z,34.08
2023-01-19T07:22:46.645Z,41.10
2023-01-19T07:27:41.145Z,37.88
2023-01-19T07:30:08.783Z,31.85
2023-01-19T07:32:36.043Z,43.35
2023-01-19T07:35:02.901Z,44.15
2023-01-19T07:37:29.636Z,38.65
2023-01-19T07:39:56.303Z,42.38
2023-01-19T07:42:22.974Z,36.90
2023-01-19T07:44:49.625Z,33.55
2023-01-19T07:47:16.282Z,34.47
2023-01-19T07:49:42.946Z,47.00
2023-01-19T07:52:09.868Z,39.13
2023-01-19T07:54:36.620Z,38.65
2023-01-19T07:57:03.290Z,35.63
2023-01-19T07:59:31.111Z,58.97
2023-01-19T08:02:00.249Z,71.93
2023-01-19T08:04:28.017Z,150.45
2023-01-19T08:06:55.650Z,47.28
2023-01-19T08:09:22.904Z,44.97
2023-01-19T08:11:49.558Z,31.67
2023-01-19T08:14:16.252Z,36.35
2023-01-19T08:16:42.910Z,33.92
2023-01-19T08:19:09.799Z,29.95
2023-01-19T08:21:38.437Z,47.70
2023-01-19T08:24:05.414Z,55.05
2023-01-19T08:26:34.515Z,55.45
2023-01-19T08:31:30.763Z,36.50
2023-01-19T08:33:57.721Z,34.35
2023-01-19T08:36:25.683Z,28.38
2023-01-19T08:38:56.094Z,37.75
2023-01-19T08:41:22.936Z,37.80
2023-01-19T08:43:50.249Z,34.33
2023-01-19T08:46:17.757Z,43.92
2023-01-19T08:48:51.262Z,45.53
2023-01-19T08:51:18.190Z,38.67
2023-01-19T08:53:44.982Z,40.13
2023-01-19T08:56:14.958Z,47.00
2023-01-19T08:58:43.894Z,40.97
2023-01-19T09:01:14.807Z,36.95
2023-01-19T09:03:41.646Z,45.38
2023-01-19T09:06:08.863Z,44.38
2023-01-19T09:08:35.843Z,38.47
2023-01-19T09:11:02.570Z,69.15
2023-01-19T09:13:29.298Z,40.13
2023-01-19T09:15:56.074Z,78.35
2023-01-19T09:18:22.975Z,48.15
2023-01-19T09:20:50.690Z,50.22
2023-01-19T09:23:19.046Z,39.33
2023-01-19T09:25:47.323Z,45.58
2023-01-19T09:28:21.462Z,46.33
2023-01-19T09:30:48.483Z,42.05
2023-01-19T09:33:16.752Z,40.28
2023-01-19T09:35:44.943Z,57.42
2023-01-19T09:38:12.465Z,52.55
2023-01-19T09:40:50.717Z,52.25
2023-01-19T09:43:47.552Z,60.33
2023-01-19T09:46:30.314Z,60.13
2023-01-19T09:48:59.130Z,55.40
2023-01-19T09:51:28.761Z,45.13
2023-01-19T09:53:56.788Z,40.08
2023-01-19T09:56:24.175Z,34.65
2023-01-19T09:58:51.605Z,41.72
2023-01-19T10:01:53.506Z,39.22
2023-01-19T10:04:28.785Z,41.65
2023-01-19T10:07:33.661Z,37.42
2023-01-19T10:10:00.263Z,39.40
2023-01-19T10:12:51.922Z,33.75
2023-01-19T10:15:57.210Z,37.70
2023-01-19T10:18:35.341Z,30.20
2023-01-19T10:21:11.419Z,37.97
2023-01-19T10:23:44.317Z,37.17
2023-01-19T10:26:26.502Z,28.70
2023-01-19T10:28:55.715Z,29.80
2023-01-19T10:31:24.113Z,32.38
2023-01-19T10:33:52.369Z,30.15
2023-01-19T10:36:23.452Z,34.35
2023-01-19T10:38:51.810Z,30.25
2023-01-19T10:41:22.361Z,30.83
2023-01-19T10:43:59.764Z,32.10
2023-01-19T10:46:38.611Z,29.10
2023-01-19T10:49:05.861Z,32.25
2023-01-19T10:51:32.608Z,31.02
2023-01-19T10:54:03.171Z,32.97
2023-01-19T10:56:36.028Z,48.33
2023-01-19T10:59:04.663Z,38.20
2023-01-19T11:01:36.039Z,29.45
2023-01-19T11:04:28.749Z,33.88
2023-01-19T11:07:14.065Z,36.55
2023-01-19T11:09:40.868Z,51.58
2023-01-19T11:12:16.589Z,25.42
2023-01-19T11:14:43.280Z,41.67
2023-01-19T11:17:19.167Z,41.55
2023-01-19T11:20:00.005Z,33.13
2023-01-19T11:22:29.332Z,34.65
2023-01-19T11:25:01.008Z,27.58
2023-01-19T11:27:28.241Z,35.08
2023-01-19T11:30:10.528Z,31.95
2023-01-19T11:32:37.322Z,29.08
2023-01-19T11:35:31.613Z,22.40
2023-01-19T11:38:13.846Z,36.00
2023-01-19T11:40:44.494Z,25.38
2023-01-19T11:43:14.228Z,36.33
2023-01-19T11:45:41.122Z,53.05
2023-01-19T11:48:34.280Z,29.88
2023-01-19T11:51:03.196Z,40.90
2023-01-19T11:53:34.065Z,34.80
2023-01-19T11:56:14.048Z,43.85
2023-01-19T11:58:43.139Z,35.97
2023-01-19T12:01:14.713Z,36.05
2023-01-19T12:03:44.670Z,28.48
2023-01-19T12:06:15.620Z,25.30
2023-01-19T12:08:46.891Z,35.28
2023-01-19T12:11:19.461Z,23.92
2023-01-19T12:13:46.990Z,29.45
2023-01-19T12:16:19.828Z,39.88
2023-01-19T12:18:52.771Z,27.13
2023-01-19T12:21:20.095Z,23.60
2023-01-19T12:23:53.988Z,25.98
2023-01-19T12:26:33.892Z,27.52
2023-01-19T12:29:22.479Z,22.08
2023-01-19T12:32:13.942Z,25.73
2023-01-19T12:34:52.131Z,18.67
2023-01-19T12:37:28.858Z,24.40
2023-01-19T12:39:57.424Z,23.80
2023-01-19T12:42:24.723Z,18.95
2023-01-19T12:45:04.566Z,21.30
2023-01-19T12:47:31.336Z,20.70
2023-01-19T12:50:05.830Z,16.42
2023-01-19T12:52:36.300Z,15.48
2023-01-19T12:55:15.808Z,22.83
2023-01-19T12:57:53.377Z,18.38
2023-01-19T13:00:23.036Z,23.15
2023-01-19T13:02:49.766Z,20.48
2023-01-19T13:05:24.553Z,23.42
2023-01-19T13:08:04.938Z,21.45
2023-01-19T13:10:59.581Z,22.35
2023-01-19T13:13:29.047Z,17.10
2023-01-19T13:15:57.702Z,24.05
2023-01-19T13:18:39.937Z,12.07
2023-01-19T13:21:08.312Z,18.60
2023-01-19T13:23:50.161Z,17.52
2023-01-19T13:26:27.723Z,17.23
2023-01-19T13:29:03.561Z,15.15
2023-01-19T13:31:39.173Z,14.98
2023-01-19T13:34:18.756Z,13.45
2023-01-19T13:36:47.672Z,16.35
2023-01-19T13:39:22.455Z,18.80
2023-01-19T13:41:49.526Z,16.35
2023-01-19T13:44:26.876Z,26.00
2023-01-19T13:46:54.053Z,17.30
2023-01-19T13:49:34.107Z,12.10
2023-01-19T13:52:05.775Z,16.38
2023-01-19T13:54:32.487Z,15.00
2023-01-19T13:56:59.356Z,27.92
2023-01-19T13:59:26.050Z,14.25
2023-01-19T14:01:55.384Z,16.52
2023-01-19T14:04:27.386Z,17.75
2023-01-19T14:07:01.263Z,13.30
2023-01-19T14:09:28.151Z,12.05
2023-01-19T14:12:11.733Z,15.38
2023-01-19T14:14:38.776Z,13.20
2023-01-19T14:17:06.832Z,31.85
2023-01-19T14:19:48.485Z,16.33
2023-01-19T14:22:15.206Z,17.60
2023-01-19T14:24:41.880Z,11.77
2023-01-19T14:27:20.684Z,18.65
2023-01-19T14:29:50.455Z,15.45
2023-01-19T14:32:22.700Z,12.30
2023-01-19T14:35:04.524Z,9.50
2023-01-19T14:37:33.730Z,13.02
2023-01-19T14:42:37.681Z,17.92
2023-01-19T14:45:08.566Z,12.77
2023-01-19T14:47:41.754Z,10.23
2023-01-19T14:50:17.347Z,13.52
2023-01-19T14:52:52.879Z,16.98
2023-01-19T14:55:36.885Z,13.90
2023-01-19T14:58:12.355Z,19.25
2023-01-19T15:00:40.345Z,12.18
2023-01-19T15:03:07.174Z,15.77
2023-01-19T15:05:33.921Z,13.38
2023-01-19T15:08:02.125Z,13.23
2023-01-19T15:10:29.216Z,9.65
2023-01-19T15:12:56.482Z,12.73
2023-01-19T15:15:29.203Z,14.25
2023-01-19T15:17:56.424Z,14.10
2023-01-19T15:20:23.779Z,12.93
2023-01-19T15:22:50.504Z,13.18
2023-01-19T15:25:20.752Z,11.02
2023-01-19T15:27:48.338Z,15.52
2023-01-19T15:30:27.974Z,13.90
2023-01-19T15:32:54.849Z,14.25
2023-01-19T15:35:23.112Z,13.35
2023-01-19T15:37:50.668Z,12.13
2023-01-19T15:40:18.613Z,21.15
2023-01-19T15:42:45.880Z,13.88
2023-01-19T15:45:24.476Z,16.17
2023-01-19T15:47:53.703Z,14.77
2023-01-19T15:50:20.412Z,14.63
2023-01-19T15:52:47.108Z,15.00
2023-01-19T15:55:15.936Z,15.15
2023-01-19T15:57:42.658Z,15.40
2023-01-19T16:00:10.136Z,19.65
2023-01-19T16:02:37.676Z,19.92
2023-01-19T16:05:04.965Z,13.32
2023-01-19T16:07:33.449Z,16.17
2023-01-19T16:10:00.536Z,16.08
2023-01-19T16:12:30.433Z,12.10
2023-01-19T16:14:57.142Z,11.15
2023-01-19T16:17:23.869Z,13.50
2023-01-19T16:19:50.509Z,17.67
2023-01-19T16:22:17.160Z,14.55
2023-01-19T16:24:43.827Z,11.98
2023-01-19T16:27:10.540Z,14.48
2023-01-19T16:29:41.065Z,16.85
2023-01-19T16:32:07.693Z,16.58
2023-01-19T16:34:35.431Z,15.15
2023-01-19T16:37:02.174Z,13.88
2023-01-19T16:39:28.945Z,14.88
2023-01-19T16:41:58.275Z,12.43
2023-01-19T16:44:26.067Z,17.73
2023-01-19T16:46:52.803Z,13.43
2023-01-19T16:49:21.925Z,12.85
2023-01-19T16:54:18.031Z,12.40
2023-01-19T16:56:44.747Z,10.98
2023-01-19T16:59:14.876Z,9.75
2023-01-19T17:01:41.934Z,14.02
2023-01-19T17:04:09.733Z,13.45
2023-01-19T17:06:36.371Z,17.33
2023-01-19T17:09:03.725Z,12.25
2023-01-19T17:11:32.205Z,13.20
2023-01-19T17:14:01.253Z,12.80
2023-01-19T17:18:58.681Z,14.90
2023-01-19T17:21:27.373Z,11.77
2023-01-19T17:23:56.675Z,13.95
2023-01-19T17:26:29.378Z,15.27
2023-01-19T17:29:06.608Z,11.52
2023-01-19T17:31:34.113Z,15.15
2023-01-19T17:34:01.846Z,17.05
2023-01-19T17:36:31.300Z,15.70
2023-01-19T17:39:01.654Z,11.85
2023-01-19T17:41:33.074Z,13.73
2023-01-19T17:44:02.624Z,10.50
2023-01-19T17:46:29.797Z,11.93
2023-01-19T17:49:04.179Z,16.58
2023-01-19T17:51:31.584Z,14.95
2023-01-19T17:53:59.094Z,12.10
2023-01-19T17:56:29.925Z,15.90
2023-01-19T17:58:57.608Z,14.40
2023-01-19T18:01:29.340Z,18.70
2023-01-19T18:03:57.886Z,13.90
2023-01-19T18:06:24.654Z,38.47
2023-01-19T18:08:52.569Z,17.30
2023-01-19T18:11:22.498Z,15.13
2023-01-19T18:13:51.408Z,10.32
2023-01-19T18:16:25.775Z,11.38
2023-01-19T18:19:01.154Z,21.20
2023-01-19T18:21:28.909Z,14.88
2023-01-19T18:24:02.861Z,16.13
2023-01-19T18:26:30.845Z,15.30
2023-01-19T18:28:58.131Z,16.05
2023-01-19T18:31:26.194Z,16.00
2023-01-19T18:33:54.112Z,12.70
2023-01-19T18:36:21.447Z,14.00
2023-01-19T18:38:50.055Z,18.42
2023-01-19T18:41:18.575Z,27.95
2023-01-19T18:43:46.662Z,35.13
2023-01-19T18:46:14.186Z,11.48
2023-01-19T18:48:40.974Z,20.20
2023-01-19T18:51:10.647Z,13.02
2023-01-19T18:53:37.872Z,16.77
2023-01-19T18:56:05.314Z,14.55
2023-01-19T18:58:32.932Z,15.30
2023-01-19T19:01:00.888Z,12.07
2023-01-19T19:03:28.116Z,14.63
2023-01-19T19:05:54.925Z,17.48
2023-01-19T19:08:21.701Z,12.05
2023-01-19T19:10:48.730Z,15.73
2023-01-19T19:13:19.105Z,11.80
2023-01-19T19:15:46.275Z,21.23
2023-01-19T19:18:16.408Z,16.63
2023-01-19T19:20:43.493Z,14.30
2023-01-19T19:23:10.993Z,16.70
2023-01-19T19:25:39.145Z,11.02
2023-01-19T19:28:06.260Z,17.92
2023-01-19T19:30:34.705Z,17.42
2023-01-19T19:33:02.808Z,13.70
2023-01-19T19:35:29.524Z,42.97
2023-01-19T19:37:58.176Z,15.00
2023-01-19T19:40:26.015Z,13.73
2023-01-19T19:42:54.183Z,12.98
2023-01-19T19:45:21.657Z,13.23
2023-01-19T19:47:48.373Z,15.55
2023-01-19T19:50:15.479Z,14.95
2023-01-19T19:52:42.714Z,14.05
2023-01-19T19:55:10.470Z,12.40
2023-01-19T19:57:37.382Z,14.60
2023-01-19T20:00:06.489Z,13.10
2023-01-19T20:04:59.767Z,11.73
2023-01-19T20:07:26.561Z,16.45
2023-01-19T20:09:55.090Z,13.23
2023-01-19T20:12:21.847Z,12.75
2023-01-19T20:14:48.569Z,11.93
2023-01-19T20:17:15.411Z,14.20
2023-01-19T20:19:44.681Z,15.02
2023-01-19T20:22:11.334Z,13.20
2023-01-19T20:24:38.051Z,16.15
2023-01-19T20:27:04.888Z,11.10
2023-01-19T20:29:31.554Z,11.80
2023-01-19T20:31:58.280Z,11.25
2023-01-19T20:34:30.026Z,12.93
2023-01-19T20:36:58.107Z,13.85
2023-01-19T20:39:25.343Z,9.57
2023-01-19T20:41:52.652Z,13.15
2023-01-19T20:44:22.415Z,13.38
2023-01-19T20:46:49.808Z,14.55
2023-01-19T20:49:17.046Z,12.20
2023-01-19T20:51:46.095Z,12.82
2023-01-19T20:54:15.530Z,12.60
2023-01-19T20:56:42.296Z,12.57
2023-01-19T20:59:12.289Z,14.45
2023-01-19T21:01:39.596Z,12.93
2023-01-19T21:04:06.459Z,10.68
2023-01-19T21:06:33.408Z,13.73
2023-01-19T21:09:00.181Z,14.38
2023-01-19T21:11:27.677Z,13.77
2023-01-19T21:13:56.526Z,10.93
2023-01-19T21:16:28.644Z,13.45
2023-01-19T21:18:55.716Z,12.25
2023-01-19T21:21:30.452Z,9.55
2023-01-19T21:24:02.069Z,11.27
2023-01-19T21:26:30.289Z,10.82
2023-01-19T21:29:01.112Z,11.35
2023-01-19T21:31:28.720Z,10.32
2023-01-19T21:33:56.494Z,8.38
2023-01-19T21:36:23.755Z,12.45
2023-01-19T21:38:51.502Z,12.05
2023-01-19T21:41:18.686Z,10.80
2023-01-19T21:43:46.240Z,17.50
2023-01-19T21:46:17.627Z,11.57
2023-01-19T21:48:45.856Z,15.45
2023-01-19T21:51:13.041Z,11.75
2023-01-19T21:53:40.194Z,9.75
2023-01-19T21:56:08.221Z,13.95
2023-01-19T21:58:35.235Z,11.55
2023-01-19T22:01:13.811Z,10.52
2023-01-19T22:03:41.472Z,12.25
2023-01-19T22:06:11.276Z,9.07
2023-01-19T22:08:38.759Z,11.13
2023-01-19T22:11:09.825Z,11.77
2023-01-19T22:13:38.724Z,8.25
2023-01-19T22:16:10.949Z,10.95
2023-01-19T22:18:44.161Z,11.70
2023-01-19T22:21:16.519Z,9.20
2023-01-19T22:23:43.760Z,9.93
2023-01-19T22:26:11.873Z,11.32
2023-01-19T22:28:38.546Z,10.45
2023-01-19T22:31:07.944Z,10.27
2023-01-19T22:33:34.777Z,7.68
2023-01-19T22:36:15.493Z,9.30
2023-01-19T22:38:43.661Z,10.18
2023-01-19T22:41:13.903Z,11.70
2023-01-19T22:43:40.622Z,12.20
2023-01-19T22:46:08.817Z,12.60
2023-01-19T22:48:35.828Z,12.40
2023-01-19T22:51:02.616Z,10.02
2023-01-19T22:53:31.314Z,10.02
2023-01-19T22:55:58.001Z,9.90
2023-01-19T22:58:24.744Z,9.57
2023-01-19T23:00:51.409Z,14.48
2023-01-19T23:03:18.115Z,10.52
2023-01-19T23:05:44.746Z,12.95
2023-01-19T23:08:11.513Z,10.63
2023-01-19T23:10:39.816Z,9.90
2023-01-19T23:13:06.540Z,9.82
2023-01-19T23:15:34.630Z,9.73
2023-01-19T23:18:01.391Z,10.35
2023-01-19T23:20:28.159Z,10.25
2023-01-19T23:22:54.829Z,10.30
2023-01-19T23:25:21.490Z,13.60
2023-01-19T23:27:48.132Z,13.30
2023-01-19T23:30:14.910Z,11.93
2023-01-19T23:32:47.198Z,11.70
2023-01-19T23:35:14.730Z,11.90
2023-01-19T23:37:41.927Z,11.80
2023-01-19T23:40:10.653Z,11.98
2023-01-19T23:42:37.369Z,10.52
2023-01-19T23:45:04.607Z,13.38
2023-01-19T23:47:31.246Z,9.55
2023-01-19T23:49:58.018Z,14.68
2023-01-19T23:52:24.713Z,14.95
2023-01-19T23:54:51.495Z,15.32
2023-01-19T23:57:18.160Z,10.63
2023-01-19T23:59:46.454Z,14.38
